createdAt,value
2017-02-16T00:00:55.472Z,12
2017-02-16T00:02:08.062Z,12
2017-02-16T00:03:20.106Z,12
2017-02-16T00:04:33.280Z,12
2017-02-16T00:05:46.691Z,12
2017-02-16T00:06:59.858Z,12
2017-02-16T00:08:13.045Z,12
2017-02-16T00:09:26.200Z,12
2017-02-16T00:10:53.361Z,16
2017-02-16T00:12:06.515Z,12
2017-02-16T00:13:19.679Z,12
2017-02-16T00:14:32.855Z,12
2017-02-16T00:15:46.308Z,12
2017-02-16T00:16:59.475Z,12
2017-02-16T00:18:12.070Z,12
2017-02-16T00:19:38.693Z,12
2017-02-16T00:21:05.844Z,12
2017-02-16T00:22:18.997Z,12
2017-02-16T00:23:45.595Z,12
2017-02-16T00:24:58.751Z,4
2017-02-16T00:26:12.176Z,16
2017-02-16T00:27:24.781Z,12
2017-02-16T00:28:37.945Z,12
2017-02-16T00:29:51.100Z,12
2017-02-16T00:31:04.260Z,12
2017-02-16T00:32:17.427Z,12
2017-02-16T00:33:30.582Z,12
2017-02-16T00:34:43.751Z,12
2017-02-16T00:35:56.921Z,12
2017-02-16T00:37:10.124Z,12
2017-02-16T00:38:22.725Z,12
2017-02-16T00:39:35.885Z,12
2017-02-16T00:40:49.041Z,12
2017-02-16T00:42:02.203Z,12
2017-02-16T00:43:15.371Z,12
2017-02-16T00:44:27.975Z,12
2017-02-16T00:45:41.131Z,12
2017-02-16T00:46:54.281Z,12
2017-02-16T00:48:07.643Z,12
2017-02-16T00:49:19.679Z,12
2017-02-16T00:50:31.709Z,12
2017-02-16T00:51:44.861Z,12
2017-02-16T00:52:58.015Z,12
2017-02-16T00:54:11.377Z,12
2017-02-16T00:55:24.552Z,12
2017-02-16T00:56:37.721Z,12
2017-02-16T00:57:50.909Z,12
2017-02-16T00:59:04.065Z,4
2017-02-16T01:00:17.217Z,12
2017-02-16T01:01:30.404Z,12
2017-02-16T01:02:43.581Z,12
2017-02-16T01:03:56.957Z,12
2017-02-16T01:05:10.129Z,12
2017-02-16T01:06:23.311Z,12
2017-02-16T01:07:50.479Z,4
2017-02-16T01:09:03.292Z,12
2017-02-16T01:10:16.475Z,12
2017-02-16T01:11:29.644Z,12
2017-02-16T01:12:42.820Z,12
2017-02-16T01:13:55.982Z,12
2017-02-16T01:15:09.134Z,12
2017-02-16T01:16:21.731Z,12
2017-02-16T01:17:34.946Z,12
2017-02-16T01:18:48.117Z,12
2017-02-16T01:20:01.307Z,12
2017-02-16T01:21:13.912Z,8
2017-02-16T01:22:27.068Z,12
2017-02-16T01:23:40.221Z,12
2017-02-16T01:25:07.579Z,12
2017-02-16T01:26:20.169Z,12
2017-02-16T01:27:32.208Z,12
2017-02-16T01:28:45.372Z,12
2017-02-16T01:29:58.532Z,12
2017-02-16T01:31:11.706Z,12
2017-02-16T01:32:24.851Z,12
2017-02-16T01:33:38.005Z,12
2017-02-16T01:35:05.160Z,12
2017-02-16T01:36:17.984Z,12
2017-02-16T01:37:30.576Z,4
2017-02-16T01:38:43.732Z,16
2017-02-16T01:39:56.906Z,16
2017-02-16T01:41:10.269Z,16
2017-02-16T01:42:23.453Z,12
2017-02-16T01:43:36.611Z,16
2017-02-16T01:44:49.757Z,12
2017-02-16T01:46:02.928Z,12
2017-02-16T01:47:15.526Z,12
2017-02-16T01:48:28.691Z,12
2017-02-16T01:49:41.880Z,16
2017-02-16T01:50:54.469Z,16
2017-02-16T01:52:07.830Z,16
2017-02-16T01:53:20.993Z,12
2017-02-16T01:54:34.143Z,12
2017-02-16T01:55:47.301Z,16
2017-02-16T01:57:00.468Z,16
2017-02-16T01:58:13.077Z,16
2017-02-16T01:59:25.685Z,16
2017-02-16T02:00:38.829Z,12
2017-02-16T02:01:51.984Z,16
2017-02-16T02:03:05.130Z,16
2017-02-16T02:04:17.940Z,12
2017-02-16T02:05:31.100Z,12
2017-02-16T02:06:44.269Z,12
2017-02-16T02:07:57.437Z,12
2017-02-16T02:09:10.034Z,12
2017-02-16T02:10:22.640Z,12
2017-02-16T02:11:35.235Z,12
2017-02-16T02:13:02.394Z,12
2017-02-16T02:14:15.198Z,12
2017-02-16T02:15:28.357Z,12
2017-02-16T02:16:41.526Z,12
2017-02-16T02:18:08.697Z,12
2017-02-16T02:19:21.856Z,12
2017-02-16T02:20:35.019Z,12
2017-02-16T02:21:48.170Z,12
2017-02-16T02:23:01.351Z,12
2017-02-16T02:24:14.152Z,12
2017-02-16T02:25:26.742Z,12
2017-02-16T02:26:39.899Z,12
2017-02-16T02:27:53.050Z,12
2017-02-16T02:29:06.220Z,12
2017-02-16T02:30:19.608Z,12
2017-02-16T02:31:32.233Z,12
2017-02-16T02:32:45.385Z,12
2017-02-16T02:33:58.544Z,12
2017-02-16T02:35:11.922Z,12
2017-02-16T02:36:25.081Z,12
2017-02-16T02:37:38.232Z,12
2017-02-16T02:38:51.410Z,12
2017-02-16T02:41:32.043Z,12
2017-02-16T02:42:45.200Z,12
2017-02-16T02:43:58.360Z,12
2017-02-16T02:45:11.520Z,12
2017-02-16T02:46:24.976Z,12
2017-02-16T02:47:38.141Z,12
2017-02-16T02:48:50.744Z,12
2017-02-16T02:50:03.890Z,12
2017-02-16T02:51:17.049Z,12
2017-02-16T02:52:30.206Z,12
2017-02-16T02:53:43.371Z,12
2017-02-16T02:54:56.539Z,12
2017-02-16T02:56:09.144Z,12
2017-02-16T02:57:22.518Z,4
2017-02-16T02:58:35.677Z,16
2017-02-16T02:59:48.827Z,12
2017-02-16T03:01:01.529Z,12
2017-02-16T03:02:14.287Z,12
2017-02-16T03:03:27.593Z,12
2017-02-16T03:04:40.881Z,12
2017-02-16T03:05:54.212Z,12
2017-02-16T03:07:07.521Z,12
2017-02-16T03:08:21.024Z,12
2017-02-16T03:09:34.322Z,12
2017-02-16T03:10:47.610Z,12
2017-02-16T03:12:00.912Z,12
2017-02-16T03:13:13.952Z,4
2017-02-16T03:14:41.230Z,12
2017-02-16T03:15:54.514Z,12
2017-02-16T03:17:07.836Z,12
2017-02-16T03:18:21.131Z,12
2017-02-16T03:19:34.418Z,12
2017-02-16T03:22:15.001Z,12
2017-02-16T03:23:28.301Z,12
2017-02-16T03:24:41.592Z,12
2017-02-16T03:25:54.885Z,12
2017-02-16T03:27:08.171Z,12
2017-02-16T03:28:21.786Z,12
2017-02-16T03:29:35.079Z,16
2017-02-16T03:30:48.361Z,12
2017-02-16T03:32:01.657Z,12
2017-02-16T03:33:14.953Z,12
2017-02-16T03:34:27.669Z,12
2017-02-16T03:35:40.988Z,12
2017-02-16T03:36:54.310Z,12
2017-02-16T03:38:07.614Z,12
2017-02-16T03:39:20.635Z,12
2017-02-16T03:40:33.933Z,16
2017-02-16T03:41:47.229Z,12
2017-02-16T03:43:00.522Z,12
2017-02-16T03:44:13.815Z,12
2017-02-16T03:45:26.535Z,12
2017-02-16T03:46:39.816Z,12
2017-02-16T03:47:53.123Z,12
2017-02-16T03:49:06.408Z,12
2017-02-16T03:50:19.900Z,12
2017-02-16T03:51:32.629Z,16
2017-02-16T03:52:45.943Z,12
2017-02-16T03:53:59.243Z,12
2017-02-16T03:55:26.711Z,12
2017-02-16T03:56:40.037Z,12
2017-02-16T03:57:53.369Z,12
2017-02-16T03:59:06.650Z,12
2017-02-16T04:00:19.961Z,12
2017-02-16T04:01:33.548Z,12
2017-02-16T04:02:46.855Z,12
2017-02-16T04:04:00.139Z,12
2017-02-16T04:05:27.400Z,12
2017-02-16T04:06:40.709Z,16
2017-02-16T04:07:53.424Z,12
2017-02-16T04:09:06.708Z,12
2017-02-16T04:10:20.007Z,12
2017-02-16T04:11:33.504Z,12
2017-02-16T04:12:46.795Z,12
2017-02-16T04:13:59.510Z,12
2017-02-16T04:15:12.811Z,12
2017-02-16T04:16:26.133Z,12
2017-02-16T04:17:39.634Z,4
2017-02-16T04:18:52.924Z,12
2017-02-16T04:20:06.235Z,12
2017-02-16T04:21:19.532Z,12
2017-02-16T04:22:32.463Z,12
2017-02-16T04:25:13.078Z,12
2017-02-16T04:26:25.808Z,12
2017-02-16T04:27:39.318Z,12
2017-02-16T04:28:52.633Z,12
2017-02-16T04:30:05.922Z,12
2017-02-16T04:31:19.116Z,12
2017-02-16T04:32:46.269Z,4
2017-02-16T04:33:59.432Z,16
2017-02-16T04:35:12.577Z,12
2017-02-16T04:36:25.730Z,12
2017-02-16T04:37:39.096Z,12
2017-02-16T04:38:52.245Z,12
2017-02-16T04:40:19.421Z,12
2017-02-16T04:41:32.609Z,12
2017-02-16T04:42:45.984Z,12
2017-02-16T04:43:59.151Z,16
2017-02-16T04:45:12.311Z,4
2017-02-16T04:46:24.913Z,12
2017-02-16T04:47:37.515Z,12
2017-02-16T04:48:50.672Z,12
2017-02-16T04:50:03.816Z,12
2017-02-16T04:51:16.429Z,12
2017-02-16T04:52:29.596Z,12
2017-02-16T04:53:43.070Z,12
2017-02-16T04:54:56.218Z,12
2017-02-16T04:56:23.379Z,12
2017-02-16T04:57:35.975Z,12
2017-02-16T04:58:50.146Z,12
2017-02-16T05:00:03.313Z,12
2017-02-16T05:01:15.355Z,4
2017-02-16T05:02:28.514Z,12
2017-02-16T05:03:41.875Z,12
2017-02-16T05:04:55.039Z,12
2017-02-16T05:06:07.637Z,12
2017-02-16T05:08:47.947Z,12
2017-02-16T05:10:01.112Z,12
2017-02-16T05:11:13.725Z,12
2017-02-16T05:12:25.809Z,12
2017-02-16T05:13:38.966Z,12
2017-02-16T05:14:52.414Z,12
2017-02-16T05:16:05.563Z,12
2017-02-16T05:17:18.737Z,12
2017-02-16T05:18:31.914Z,12
2017-02-16T05:19:45.074Z,12
2017-02-16T05:20:58.222Z,12
2017-02-16T05:22:10.818Z,12
2017-02-16T05:23:23.442Z,12
2017-02-16T05:24:36.034Z,16
2017-02-16T05:25:49.210Z,12
2017-02-16T05:27:02.381Z,12
2017-02-16T05:28:15.553Z,12
2017-02-16T05:29:42.761Z,12
2017-02-16T05:30:56.252Z,12
2017-02-16T05:32:09.433Z,12
2017-02-16T05:33:22.600Z,12
2017-02-16T05:34:35.767Z,12
2017-02-16T05:35:48.930Z,12
2017-02-16T05:37:02.104Z,12
2017-02-16T05:38:15.265Z,12
2017-02-16T05:39:28.439Z,12
2017-02-16T05:40:41.614Z,12
2017-02-16T05:41:54.538Z,12
2017-02-16T05:43:07.709Z,12
2017-02-16T05:44:20.865Z,12
2017-02-16T05:45:33.449Z,12
2017-02-16T05:46:46.817Z,12
2017-02-16T05:47:59.962Z,12
2017-02-16T05:49:13.131Z,12
2017-02-16T05:50:25.718Z,12
2017-02-16T05:51:38.882Z,4
2017-02-16T05:52:52.249Z,12
2017-02-16T05:54:04.864Z,12
2017-02-16T05:55:16.914Z,12
2017-02-16T05:56:44.088Z,12
2017-02-16T05:57:57.261Z,12
2017-02-16T05:59:10.417Z,4
2017-02-16T06:00:23.586Z,12
2017-02-16T06:01:36.269Z,12
2017-02-16T06:02:49.879Z,12
2017-02-16T06:04:03.189Z,12
2017-02-16T06:05:15.911Z,12
2017-02-16T06:06:29.200Z,12
2017-02-16T06:07:42.484Z,12
2017-02-16T06:08:55.780Z,12
2017-02-16T06:10:23.051Z,12
2017-02-16T06:11:36.336Z,12
2017-02-16T06:12:49.051Z,12
2017-02-16T06:14:02.651Z,12
2017-02-16T06:15:15.384Z,12
2017-02-16T06:16:28.708Z,12
2017-02-16T06:17:40.870Z,12
2017-02-16T06:18:54.154Z,12
2017-02-16T06:20:07.643Z,12
2017-02-16T06:21:20.383Z,12
2017-02-16T06:22:33.693Z,12
2017-02-16T06:23:46.978Z,12
2017-02-16T06:25:00.574Z,12
2017-02-16T06:26:13.887Z,4
2017-02-16T06:27:27.176Z,12
2017-02-16T06:28:40.496Z,12
2017-02-16T06:29:53.784Z,12
2017-02-16T06:31:07.075Z,12
2017-02-16T06:32:20.362Z,12
2017-02-16T06:33:33.650Z,12
2017-02-16T06:34:46.374Z,12
2017-02-16T06:35:59.959Z,12
2017-02-16T06:37:13.254Z,4
2017-02-16T06:38:26.541Z,12
2017-02-16T06:39:39.849Z,12
2017-02-16T06:41:07.126Z,12
2017-02-16T06:42:20.439Z,12
2017-02-16T06:43:33.172Z,12
2017-02-16T06:44:46.480Z,12
2017-02-16T06:45:59.990Z,12
2017-02-16T06:47:27.142Z,12
2017-02-16T06:48:40.318Z,12
2017-02-16T06:50:07.471Z,12
2017-02-16T06:51:20.640Z,12
2017-02-16T06:52:33.241Z,8
2017-02-16T06:53:46.397Z,8
2017-02-16T06:54:59.571Z,12
2017-02-16T06:56:12.737Z,12
2017-02-16T06:57:25.335Z,12
2017-02-16T06:58:38.499Z,12
2017-02-16T06:59:51.099Z,12
2017-02-16T07:01:04.284Z,12
2017-02-16T07:02:31.649Z,12
2017-02-16T07:03:44.264Z,12
2017-02-16T07:04:57.441Z,12
2017-02-16T07:06:10.600Z,12
2017-02-16T07:07:24.101Z,12
2017-02-16T07:08:37.253Z,12
2017-02-16T07:09:50.430Z,12
2017-02-16T07:11:03.597Z,12
2017-02-16T07:12:16.197Z,12
2017-02-16T07:13:29.555Z,12
2017-02-16T07:14:42.153Z,12
2017-02-16T07:15:55.328Z,12
2017-02-16T07:17:08.486Z,12
2017-02-16T07:18:35.277Z,8
2017-02-16T07:19:48.437Z,4
2017-02-16T07:21:01.607Z,12
2017-02-16T07:22:14.766Z,12
2017-02-16T07:23:27.916Z,12
2017-02-16T07:24:40.728Z,12
2017-02-16T07:25:53.889Z,12
2017-02-16T07:27:07.051Z,12
2017-02-16T07:28:20.231Z,12
2017-02-16T07:29:33.681Z,4
2017-02-16T07:30:46.830Z,12
2017-02-16T07:31:59.978Z,12
2017-02-16T07:33:13.136Z,12
2017-02-16T07:34:26.283Z,12
2017-02-16T07:35:39.436Z,12
2017-02-16T07:36:52.579Z,12
2017-02-16T07:38:05.746Z,12
2017-02-16T07:39:18.341Z,12
2017-02-16T07:40:31.794Z,12
2017-02-16T07:41:44.389Z,12
2017-02-16T07:42:56.989Z,12
2017-02-16T07:44:10.156Z,12
2017-02-16T07:45:22.184Z,12
2017-02-16T07:46:35.668Z,4
2017-02-16T07:47:48.835Z,12
2017-02-16T07:49:02.011Z,12
2017-02-16T07:50:14.627Z,12
2017-02-16T07:51:28.082Z,12
2017-02-16T07:52:40.690Z,12
2017-02-16T07:53:53.854Z,12
2017-02-16T07:55:07.014Z,12
2017-02-16T07:56:20.178Z,12
2017-02-16T07:57:47.333Z,12
2017-02-16T07:59:00.501Z,12
2017-02-16T08:00:12.550Z,12
2017-02-16T08:01:25.135Z,12
2017-02-16T08:02:37.733Z,8
2017-02-16T08:03:50.877Z,12
2017-02-16T08:05:04.086Z,4
2017-02-16T08:06:16.677Z,12
2017-02-16T08:07:30.134Z,12
2017-02-16T08:08:43.309Z,12
2017-02-16T08:09:56.462Z,12
2017-02-16T08:11:23.058Z,12
2017-02-16T08:12:36.521Z,8
2017-02-16T08:13:49.681Z,12
2017-02-16T08:15:02.858Z,12
2017-02-16T08:16:15.532Z,12
2017-02-16T08:17:28.254Z,12
2017-02-16T08:18:41.759Z,12
2017-02-16T08:19:55.044Z,12
2017-02-16T08:21:08.341Z,12
2017-02-16T08:22:21.088Z,12
2017-02-16T08:23:34.572Z,12
2017-02-16T08:25:01.856Z,12
2017-02-16T08:26:14.592Z,12
2017-02-16T08:27:27.335Z,12
2017-02-16T08:28:40.926Z,12
2017-02-16T08:29:54.230Z,12
2017-02-16T08:31:06.960Z,12
2017-02-16T08:32:20.252Z,16
2017-02-16T08:33:33.564Z,12
2017-02-16T08:34:46.848Z,12
2017-02-16T08:36:00.170Z,12
2017-02-16T08:37:13.472Z,16
2017-02-16T08:38:26.215Z,12
2017-02-16T08:39:39.850Z,12
2017-02-16T08:40:53.151Z,12
2017-02-16T08:42:05.877Z,12
2017-02-16T08:43:18.612Z,16
2017-02-16T08:44:31.910Z,16
2017-02-16T08:45:45.494Z,16
2017-02-16T08:46:58.783Z,16
2017-02-16T08:48:12.081Z,20
2017-02-16T08:49:25.378Z,20
2017-02-16T08:50:38.982Z,16
2017-02-16T08:51:51.709Z,24
2017-02-16T08:53:18.984Z,12
2017-02-16T08:54:32.291Z,16
2017-02-16T08:55:59.857Z,20
2017-02-16T08:57:12.586Z,24
2017-02-16T08:58:25.886Z,24
2017-02-16T08:59:39.189Z,32
2017-02-16T09:00:52.486Z,36
2017-02-16T09:02:05.772Z,40
2017-02-16T09:03:18.509Z,40
2017-02-16T09:04:31.802Z,44
2017-02-16T09:05:45.311Z,52
2017-02-16T09:06:58.621Z,52
2017-02-16T09:08:11.928Z,60
2017-02-16T09:09:39.196Z,64
2017-02-16T09:10:51.912Z,68
2017-02-16T09:12:05.214Z,72
2017-02-16T09:13:18.550Z,80
2017-02-16T09:14:31.841Z,84
2017-02-16T09:15:45.136Z,88
2017-02-16T09:17:12.618Z,92
2017-02-16T09:18:25.917Z,96
2017-02-16T09:19:39.248Z,104
2017-02-16T09:21:06.853Z,108
2017-02-16T09:22:20.141Z,112
2017-02-16T09:23:33.427Z,116
2017-02-16T09:24:46.712Z,120
2017-02-16T09:26:00.209Z,124
2017-02-16T09:27:13.521Z,124
2017-02-16T09:28:26.251Z,132
2017-02-16T09:29:39.006Z,132
2017-02-16T09:30:52.319Z,136
2017-02-16T09:32:05.815Z,140
2017-02-16T09:33:18.550Z,144
2017-02-16T09:34:31.874Z,148
2017-02-16T09:35:45.157Z,156
2017-02-16T09:36:58.451Z,160
2017-02-16T09:38:11.170Z,164
2017-02-16T09:39:23.322Z,168
2017-02-16T09:40:36.613Z,172
2017-02-16T09:42:03.885Z,176
2017-02-16T09:43:17.194Z,176
2017-02-16T09:44:30.504Z,180
2017-02-16T09:45:43.700Z,184
2017-02-16T09:46:55.750Z,188
2017-02-16T09:48:22.907Z,192
2017-02-16T09:49:36.089Z,196
2017-02-16T09:50:49.271Z,200
2017-02-16T09:52:02.435Z,204
2017-02-16T09:53:14.665Z,204
2017-02-16T09:54:27.822Z,212
2017-02-16T09:55:40.971Z,208
2017-02-16T09:56:54.122Z,212
2017-02-16T09:58:20.468Z,220
2017-02-16T09:59:33.643Z,224
2017-02-16T10:00:46.834Z,224
2017-02-16T10:01:59.989Z,228
2017-02-16T10:03:13.137Z,232
2017-02-16T10:04:26.029Z,236
2017-02-16T10:05:39.180Z,240
2017-02-16T10:06:52.404Z,240
2017-02-16T10:08:05.048Z,244
2017-02-16T10:09:17.842Z,244
2017-02-16T10:10:31.008Z,248
2017-02-16T10:11:44.188Z,248
2017-02-16T10:12:57.356Z,248
2017-02-16T10:14:10.716Z,252
2017-02-16T10:15:22.780Z,252
2017-02-16T10:16:35.390Z,256
2017-02-16T10:17:48.577Z,260
2017-02-16T10:19:01.174Z,264
2017-02-16T10:20:13.785Z,268
2017-02-16T10:21:26.952Z,268
2017-02-16T10:22:54.127Z,276
2017-02-16T10:24:22.433Z,276
2017-02-16T10:25:35.620Z,280
2017-02-16T10:26:48.783Z,272
2017-02-16T10:28:01.956Z,272
2017-02-16T10:29:15.135Z,284
2017-02-16T10:30:27.939Z,292
2017-02-16T10:31:41.117Z,284
2017-02-16T10:32:54.289Z,284
2017-02-16T10:34:07.449Z,288
2017-02-16T10:35:20.054Z,288
2017-02-16T10:36:33.515Z,288
2017-02-16T10:37:46.696Z,292
2017-02-16T10:38:58.743Z,296
2017-02-16T10:40:11.920Z,300
2017-02-16T10:42:52.256Z,292
2017-02-16T10:44:05.422Z,296
2017-02-16T10:45:18.027Z,300
2017-02-16T10:46:30.619Z,300
2017-02-16T10:47:44.081Z,304
2017-02-16T10:48:56.708Z,304
2017-02-16T10:50:09.868Z,308
2017-02-16T10:51:23.042Z,304
2017-02-16T10:52:36.205Z,308
2017-02-16T10:53:49.387Z,304
2017-02-16T10:55:02.565Z,304
2017-02-16T10:56:14.627Z,304
2017-02-16T10:57:27.895Z,312
2017-02-16T10:58:41.087Z,312
2017-02-16T11:00:08.285Z,320
2017-02-16T11:01:19.892Z,312
2017-02-16T11:02:33.234Z,316
2017-02-16T11:03:46.503Z,316
2017-02-16T11:04:59.829Z,316
2017-02-16T11:06:13.237Z,308
2017-02-16T11:07:26.491Z,316
2017-02-16T11:08:39.856Z,312
2017-02-16T11:09:53.011Z,324
2017-02-16T11:11:05.625Z,328
2017-02-16T11:12:18.782Z,336
2017-02-16T11:13:31.943Z,320
2017-02-16T11:14:45.092Z,316
2017-02-16T11:15:58.253Z,320
2017-02-16T11:17:10.859Z,348
2017-02-16T11:18:23.468Z,336
2017-02-16T11:19:36.936Z,336
2017-02-16T11:20:50.114Z,360
2017-02-16T11:22:03.298Z,348
2017-02-16T11:23:15.902Z,332
2017-02-16T11:24:43.252Z,352
2017-02-16T11:25:55.893Z,364
2017-02-16T11:27:09.048Z,356
2017-02-16T11:28:22.224Z,356
2017-02-16T11:29:35.394Z,360
2017-02-16T11:30:48.810Z,356
2017-02-16T11:32:02.106Z,356
2017-02-16T11:33:14.754Z,356
2017-02-16T11:34:27.991Z,332
2017-02-16T11:35:41.488Z,348
2017-02-16T11:36:54.781Z,356
2017-02-16T11:38:08.085Z,376
2017-02-16T11:39:20.841Z,380
2017-02-16T11:40:34.248Z,364
2017-02-16T11:41:47.515Z,380
2017-02-16T11:43:00.120Z,380
2017-02-16T11:44:13.281Z,388
2017-02-16T11:45:40.434Z,392
2017-02-16T11:46:53.341Z,396
2017-02-16T11:48:05.941Z,400
2017-02-16T11:49:19.097Z,404
2017-02-16T11:50:32.248Z,372
2017-02-16T11:51:45.399Z,416
2017-02-16T11:52:58.552Z,416
2017-02-16T11:54:25.164Z,420
2017-02-16T11:55:38.316Z,404
2017-02-16T11:56:51.684Z,428
2017-02-16T11:58:03.730Z,420
2017-02-16T11:59:16.915Z,432
2017-02-16T12:00:42.977Z,428
2017-02-16T12:01:56.140Z,440
2017-02-16T12:03:09.318Z,432
2017-02-16T12:04:21.913Z,464
2017-02-16T12:05:35.069Z,460
2017-02-16T12:06:48.244Z,468
2017-02-16T12:08:01.132Z,464
2017-02-16T12:09:14.281Z,468
2017-02-16T12:10:26.352Z,472
2017-02-16T12:11:39.531Z,472
2017-02-16T12:12:52.692Z,488
2017-02-16T12:14:04.753Z,492
2017-02-16T12:15:17.919Z,496
2017-02-16T12:16:31.068Z,504
2017-02-16T12:17:44.218Z,500
2017-02-16T12:18:57.367Z,508
2017-02-16T12:20:10.543Z,524
2017-02-16T12:21:23.755Z,536
2017-02-16T12:22:36.931Z,536
2017-02-16T12:23:50.104Z,548
2017-02-16T12:25:03.278Z,560
2017-02-16T12:26:16.461Z,516
2017-02-16T12:27:29.098Z,544
2017-02-16T12:28:42.493Z,544
2017-02-16T12:29:55.699Z,548
2017-02-16T12:31:08.336Z,556
2017-02-16T12:32:34.386Z,556
2017-02-16T12:33:47.577Z,560
2017-02-16T12:35:00.827Z,556
2017-02-16T12:36:14.019Z,580
2017-02-16T12:37:27.298Z,568
2017-02-16T12:38:40.657Z,600
2017-02-16T12:39:54.047Z,676
2017-02-16T12:41:06.291Z,740
2017-02-16T12:42:18.958Z,804
2017-02-16T12:43:31.549Z,876
2017-02-16T12:46:24.850Z,1208
2017-02-16T12:47:38.368Z,1328
2017-02-16T12:48:51.663Z,1408
2017-02-16T12:50:04.964Z,1496
2017-02-16T12:51:18.252Z,1572
2017-02-16T12:52:31.552Z,1628
2017-02-16T12:53:44.845Z,1680
2017-02-16T12:54:58.129Z,1720
2017-02-16T12:56:11.050Z,1756
2017-02-16T12:57:38.307Z,1804
2017-02-16T12:59:05.569Z,1844
2017-02-16T13:00:18.307Z,1912
2017-02-16T13:01:31.612Z,1972
2017-02-16T13:02:44.907Z,1916
2017-02-16T13:03:58.202Z,2032
2017-02-16T13:05:10.922Z,2056
2017-02-16T13:06:24.202Z,2100
2017-02-16T13:07:36.907Z,2120
2017-02-16T13:08:50.189Z,2116
2017-02-16T13:10:03.508Z,2172
2017-02-16T13:11:30.797Z,2160
2017-02-16T13:12:44.078Z,2216
2017-02-16T13:13:57.389Z,2256
2017-02-16T13:15:10.130Z,2280
2017-02-16T13:16:23.423Z,2308
2017-02-16T13:17:50.314Z,2268
2017-02-16T13:19:03.606Z,2316
2017-02-16T13:20:16.321Z,2368
2017-02-16T13:21:43.805Z,2368
2017-02-16T13:22:57.108Z,2364
2017-02-16T13:24:09.841Z,2400
2017-02-16T13:25:22.561Z,2420
2017-02-16T13:28:03.670Z,2320
2017-02-16T13:29:16.395Z,2392
2017-02-16T13:30:30.377Z,2404
2017-02-16T13:31:43.540Z,2388
2017-02-16T13:32:56.686Z,1820
2017-02-16T13:34:09.867Z,2480
2017-02-16T13:35:22.459Z,2496
2017-02-16T13:36:35.618Z,2424
2017-02-16T13:37:48.209Z,2448
2017-02-16T13:39:01.367Z,2440
2017-02-16T13:40:14.516Z,2476
2017-02-16T13:41:27.659Z,2500
2017-02-16T13:42:40.814Z,2508
2017-02-16T13:43:53.973Z,2588
2017-02-16T13:45:07.128Z,2344
2017-02-16T13:46:20.268Z,2416
2017-02-16T13:47:33.407Z,2436
2017-02-16T13:48:46.562Z,2492
2017-02-16T13:50:13.732Z,2520
2017-02-16T13:51:26.888Z,2588
2017-02-16T13:52:40.038Z,2640
2017-02-16T13:53:52.624Z,2560
2017-02-16T13:56:32.953Z,2556
2017-02-16T13:57:46.099Z,2624
2017-02-16T13:59:13.248Z,2152
2017-02-16T14:00:26.400Z,2728
2017-02-16T14:01:39.569Z,680
2017-02-16T14:02:52.712Z,2672
2017-02-16T14:04:05.867Z,2752
2017-02-16T14:05:18.665Z,2720
2017-02-16T14:06:31.851Z,2724
2017-02-16T14:07:44.993Z,2724
2017-02-16T14:08:58.356Z,2712
2017-02-16T14:10:11.511Z,2760
2017-02-16T14:11:24.676Z,2848
2017-02-16T14:12:37.277Z,2832
2017-02-16T14:13:50.440Z,2832
2017-02-16T14:15:03.587Z,2824
2017-02-16T14:16:16.781Z,2824
2017-02-16T14:17:29.966Z,2888
2017-02-16T14:18:43.131Z,2368
2017-02-16T14:19:56.290Z,1548
2017-02-16T14:21:09.434Z,1384
2017-02-16T14:22:22.600Z,2904
2017-02-16T14:23:35.760Z,2928
2017-02-16T14:24:47.843Z,2848
2017-02-16T14:26:01.196Z,2792
2017-02-16T14:27:14.340Z,2808
2017-02-16T14:28:27.501Z,2864
2017-02-16T14:29:40.642Z,2852
2017-02-16T14:31:07.801Z,2856
2017-02-16T14:32:19.277Z,2756
2017-02-16T14:33:31.329Z,2820
2017-02-16T14:34:43.949Z,2936
2017-02-16T14:35:57.109Z,2944
2017-02-16T14:37:10.490Z,2916
2017-02-16T14:38:37.647Z,2912
2017-02-16T14:39:50.820Z,856
2017-02-16T14:41:03.971Z,808
2017-02-16T14:42:16.553Z,800
2017-02-16T14:43:43.709Z,820
2017-02-16T14:44:56.855Z,840
2017-02-16T14:46:10.012Z,940
2017-02-16T14:47:22.591Z,1052
2017-02-16T14:48:35.779Z,1040
2017-02-16T14:49:47.850Z,1028
2017-02-16T14:51:01.001Z,1052
2017-02-16T14:52:14.160Z,1080
2017-02-16T14:53:27.512Z,1096
2017-02-16T14:54:41.096Z,1040
2017-02-16T14:55:53.681Z,980
2017-02-16T14:57:06.298Z,952
2017-02-16T14:58:19.638Z,2476
2017-02-16T14:59:32.784Z,2832
2017-02-16T15:00:45.925Z,1060
2017-02-16T15:01:59.072Z,1204
2017-02-16T15:03:12.445Z,2964
2017-02-16T15:04:25.596Z,1340
2017-02-16T15:05:38.752Z,2932
2017-02-16T15:06:51.903Z,2944
2017-02-16T15:08:05.050Z,2912
2017-02-16T15:09:18.410Z,2776
2017-02-16T15:10:30.990Z,2908
2017-02-16T15:11:44.146Z,2884
2017-02-16T15:12:57.296Z,2868
2017-02-16T15:14:09.350Z,3076
2017-02-16T15:15:21.950Z,3140
2017-02-16T15:16:35.088Z,3016
2017-02-16T15:18:02.245Z,3024
2017-02-16T15:19:15.411Z,3004
2017-02-16T15:20:28.610Z,2764
2017-02-16T15:21:41.761Z,2856
2017-02-16T15:22:54.913Z,2512
2017-02-16T15:24:07.518Z,964
2017-02-16T15:25:20.106Z,992
2017-02-16T15:26:32.156Z,976
2017-02-16T15:27:45.303Z,1096
2017-02-16T15:28:58.452Z,1960
2017-02-16T15:30:10.508Z,2472
2017-02-16T15:31:23.132Z,2408
2017-02-16T15:32:35.721Z,2372
2017-02-16T15:33:48.881Z,2344
2017-02-16T15:35:02.044Z,2244
2017-02-16T15:36:15.214Z,2212
2017-02-16T15:37:28.398Z,2128
2017-02-16T15:38:41.570Z,2172
2017-02-16T15:39:54.749Z,2096
2017-02-16T15:41:07.931Z,2056
2017-02-16T15:42:20.568Z,1992
2017-02-16T15:43:33.750Z,2024
2017-02-16T15:45:00.913Z,1032
2017-02-16T15:46:14.069Z,948
2017-02-16T15:47:27.254Z,1000
2017-02-16T15:48:40.412Z,1672
2017-02-16T15:49:53.583Z,2040
2017-02-16T15:51:06.735Z,2016
2017-02-16T15:52:20.100Z,1948
2017-02-16T15:53:33.241Z,1440
2017-02-16T15:54:46.403Z,1100
2017-02-16T15:55:59.602Z,1040
2017-02-16T15:57:12.769Z,1068
2017-02-16T15:58:25.926Z,1192
2017-02-16T15:59:39.139Z,1304
2017-02-16T16:01:06.578Z,1572
2017-02-16T16:02:33.743Z,1760
2017-02-16T16:03:46.362Z,1776
2017-02-16T16:04:59.560Z,1784
2017-02-16T16:06:11.624Z,1764
2017-02-16T16:07:24.360Z,1768
2017-02-16T16:08:37.761Z,1704
2017-02-16T16:09:50.924Z,1208
2017-02-16T16:11:03.556Z,1688
2017-02-16T16:12:16.229Z,1604
2017-02-16T16:13:43.491Z,788
2017-02-16T16:14:56.179Z,872
2017-02-16T16:16:09.461Z,1552
2017-02-16T16:17:21.582Z,1468
2017-02-16T16:18:34.854Z,1788
2017-02-16T16:19:48.182Z,1576
2017-02-16T16:21:01.589Z,1700
2017-02-16T16:22:14.955Z,1684
2017-02-16T16:23:27.811Z,1652
2017-02-16T16:24:41.245Z,1600
2017-02-16T16:25:54.642Z,1428
2017-02-16T16:27:08.104Z,808
2017-02-16T16:28:21.581Z,812
2017-02-16T16:29:35.048Z,808
2017-02-16T16:30:48.418Z,1140
2017-02-16T16:32:01.653Z,1040
2017-02-16T16:33:28.800Z,1096
2017-02-16T16:34:40.822Z,1096
2017-02-16T16:35:53.985Z,1060
2017-02-16T16:37:07.372Z,1040
2017-02-16T16:38:19.397Z,1484
2017-02-16T16:39:33.081Z,1028
2017-02-16T16:40:46.235Z,1376
2017-02-16T16:41:59.378Z,1032
2017-02-16T16:43:12.531Z,1308
2017-02-16T16:44:24.601Z,788
2017-02-16T16:45:37.946Z,856
2017-02-16T16:46:51.133Z,880
2017-02-16T16:48:18.291Z,1392
2017-02-16T16:49:44.901Z,1048
2017-02-16T16:50:58.346Z,1108
2017-02-16T16:52:11.501Z,1164
2017-02-16T16:53:24.677Z,1008
2017-02-16T16:54:37.829Z,1008
2017-02-16T16:55:51.292Z,972
2017-02-16T16:57:04.441Z,1004
2017-02-16T16:58:17.609Z,1012
2017-02-16T16:59:30.758Z,1036
2017-02-16T17:00:43.916Z,1080
2017-02-16T17:01:57.132Z,1068
2017-02-16T17:03:24.301Z,1328
2017-02-16T17:04:37.458Z,1052
2017-02-16T17:05:50.616Z,980
2017-02-16T17:07:04.069Z,896
2017-02-16T17:08:17.212Z,784
2017-02-16T17:09:30.361Z,668
2017-02-16T17:10:43.499Z,636
2017-02-16T17:11:56.672Z,624
2017-02-16T17:13:09.843Z,580
2017-02-16T17:14:36.443Z,568
2017-02-16T17:15:49.607Z,584
2017-02-16T17:17:03.066Z,588
2017-02-16T17:18:29.691Z,652
2017-02-16T17:19:42.838Z,708
2017-02-16T17:20:56.014Z,868
2017-02-16T17:22:08.031Z,984
2017-02-16T17:23:21.202Z,736
2017-02-16T17:24:33.801Z,588